Time;durP1;ratioP1;P1;durP2;ratioP2;P2;SDS_P1;SDS_P2;PMS_P1;PMS_P2;Temp;Humidity;BMP_temperature;BMP_pressure;BME280_temperature;BME280_humidity;BME280_pressure;Samples;Min_cycle;Max_cycle;Signal;HPM_P1;HPM_P2
2023/08/08 00:02:17;;;;;;;6.40;4.25;;;;;;;;;;5079677;28;20024;-83
2023/08/08 00:04:43;;;;;;;10.55;5.03;;;26.70;63.90;;;;;;5081344;28;20118;-83
2023/08/08 00:07:09;;;;;;;7.20;5.30;;;24.10;73.80;;;;;;5076243;28;20100;-83
2023/08/08 00:09:35;;;;;;;9.90;5.25;;;23.80;73.70;;;;;;5059179;28;20036;-84
2023/08/08 00:12:01;;;;;;;6.85;4.90;;;23.70;73.50;;;;;;5076334;28;20467;-83
2023/08/08 00:14:27;;;;;;;12.48;4.80;;;23.70;73.70;;;;;;5076974;28;20107;-84
2023/08/08 00:16:53;;;;;;;9.25;4.43;;;23.70;73.80;;;;;;5062318;28;20522;-84
2023/08/08 00:19:19;;;;;;;7.55;4.65;;;23.70;73.90;;;;;;5076209;28;20060;-83
2023/08/08 00:21:44;;;;;;;8.43;4.05;;;23.70;73.90;;;;;;5059069;28;20021;-82
2023/08/08 00:24:10;;;;;;;7.25;4.53;;;23.70;73.80;;;;;;5076579;28;20508;-83
2023/08/08 00:26:36;;;;;;;8.13;4.25;;;23.80;73.70;;;;;;5054931;28;20474;-82
2023/08/08 00:29:02;;;;;;;7.07;4.53;;;23.70;73.70;;;;;;5077111;28;20488;-83
2023/08/08 00:31:28;;;;;;;6.70;4.55;;;23.70;73.50;;;;;;5089987;28;20364;-83
2023/08/08 00:33:54;;;;;;;8.98;4.53;;;23.70;73.60;;;;;;5072982;28;20029;-82
2023/08/08 00:36:20;;;;;;;7.45;4.60;;;23.70;73.80;;;;;;5079519;28;20086;-83
2023/08/08 00:38:46;;;;;;;6.63;4.72;;;23.70;73.60;;;;;;5084813;28;20031;-83
2023/08/08 00:41:11;;;;;;;8.50;4.25;;;23.70;73.70;;;;;;5077993;28;20054;-83
2023/08/08 00:43:37;;;;;;;7.55;4.38;;;23.70;73.80;;;;;;5058774;28;20029;-83
2023/08/08 00:46:03;;;;;;;5.75;5.13;;;23.60;73.80;;;;;;5075517;28;20029;-83
2023/08/08 00:48:29;;;;;;;6.05;4.25;;;23.50;74.10;;;;;;5057596;28;20016;-84
2023/08/08 00:50:55;;;;;;;6.10;4.88;;;23.50;74.50;;;;;;5066474;28;20029;-83
2023/08/08 00:53:23;;;;;;;8.80;4.18;;;23.50;74.50;;;;;;5057483;28;20019;-84
2023/08/08 00:55:48;;;;;;;;;;;23.50;74.30;;;;;;5062380;28;20071;-82
2023/08/08 00:58:16;;;;;;;7.63;4.65;;;23.50;74.00;;;;;;5075387;28;19950;-81
2023/08/08 01:00:42;;;;;;;8.52;4.78;;;23.40;74.90;;;;;;5075390;28;20064;-84
2023/08/08 01:03:08;;;;;;;9.80;4.90;;;23.50;75.00;;;;;;5089558;28;20094;-83
2023/08/08 01:05:47;;;;;;;9.50;4.43;;;23.50;74.90;;;;;;5077341;28;20478;-83
2023/08/08 01:08:19;;;;;;;10.75;5.45;;;23.50;74.80;;;;;;5076292;28;20013;-83
2023/08/08 01:10:45;;;;;;;9.85;5.32;;;23.50;75.40;;;;;;5074968;28;20114;-82
2023/08/08 01:13:17;;;;;;;5.65;5.05;;;23.40;76.20;;;;;;5060626;28;20478;-83
2023/08/08 01:15:46;;;;;;;6.20;4.97;;;23.30;77.00;;;;;;5057458;28;20031;-83
2023/08/08 01:18:14;;;;;;;6.97;5.65;;;23.00;78.10;;;;;;5057519;28;20054;-84
2023/08/08 01:20:41;;;;;;;12.75;5.70;;;22.80;79.90;;;;;;5074871;28;20056;-81
2023/08/08 01:23:13;;;;;;;8.55;5.13;;;22.60;81.00;;;;;;5074772;28;20063;-84
2023/08/08 01:25:40;;;;;;;5.93;5.25;;;22.60;80.80;;;;;;5056874;28;20032;-82
2023/08/08 01:28:06;;;;;;;7.85;4.90;;;22.50;81.00;;;;;;5075776;28;20023;-82
2023/08/08 01:30:32;;;;;;;6.78;4.68;;;22.50;80.70;;;;;;5075471;28;20123;-82
2023/08/08 01:32:58;;;;;;;8.32;4.95;;;22.50;80.90;;;;;;5059706;28;20473;-83
2023/08/08 01:35:28;;;;;;;9.20;4.47;;;22.60;80.50;;;;;;5081843;28;20043;-83
2023/08/08 01:38:02;;;;;;;7.10;5.25;;;22.70;80.40;;;;;;5086248;28;20028;-83
2023/08/08 01:40:29;;;;;;;8.63;4.85;;;22.70;80.40;;;;;;5075359;28;20074;-82
2023/08/08 01:42:56;;;;;;;6.57;4.97;;;22.70;80.50;;;;;;5052760;28;20514;-82
2023/08/08 01:45:24;;;;;;;5.25;4.75;;;22.80;79.60;;;;;;5095128;28;20032;-82
2023/08/08 01:47:51;;;;;;;6.25;5.38;;;22.80;79.30;;;;;;5096682;28;20058;-84
2023/08/08 01:50:17;;;;;;;7.15;4.45;;;22.80;80.50;;;;;;5074738;28;20021;-83
2023/08/08 01:52:43;;;;;;;7.63;4.38;;;22.90;79.80;;;;;;5074876;28;20047;-83
2023/08/08 01:55:09;;;;;;;6.97;4.90;;;22.90;79.20;;;;;;5069171;28;20382;-83
2023/08/08 01:57:35;;;;;;;6.53;5.07;;;23.00;78.80;;;;;;5063039;28;20039;-84
2023/08/08 02:00:04;;;;;;;5.18;4.68;;;23.00;78.40;;;;;;5057029;28;20024;-84
2023/08/08 02:02:30;;;;;;;9.63;5.13;;;23.00;77.60;;;;;;5083424;28;20158;-83
2023/08/08 02:04:55;;;;;;;6.43;4.07;;;23.00;78.10;;;;;;5076017;28;20028;-82
2023/08/08 02:07:21;;;;;;;7.28;4.50;;;23.00;77.60;;;;;;5069358;28;20024;-83
2023/08/08 02:09:47;;;;;;;6.50;4.43;;;23.10;77.30;;;;;;5077478;28;20162;-83
2023/08/08 02:12:13;;;;;;;6.57;5.28;;;23.00;77.40;;;;;;5074581;28;20456;-82
2023/08/08 02:14:39;;;;;;;5.00;4.50;;;23.00;77.40;;;;;;5075263;28;20025;-84
2023/08/08 02:17:05;;;;;;;6.28;4.57;;;23.00;77.20;;;;;;5074848;28;20122;-85
2023/08/08 02:19:31;;;;;;;5.70;4.38;;;23.00;77.30;;;;;;5056456;28;20492;-85
2023/08/08 02:21:57;;;;;;;7.93;4.72;;;23.00;76.70;;;;;;5069286;28;20024;-84
2023/08/08 02:24:22;;;;;;;6.57;4.32;;;23.00;77.00;;;;;;5064452;28;20469;-83
2023/08/08 02:26:48;;;;;;;6.47;4.90;;;23.00;77.80;;;;;;5052436;28;20025;-83
2023/08/08 02:29:14;;;;;;;5.45;4.90;;;22.80;78.40;;;;;;5062676;28;20385;-84
2023/08/08 02:31:40;;;;;;;7.82;4.47;;;22.60;79.70;;;;;;5043299;28;20024;-84
2023/08/08 02:34:06;;;;;;;10.32;4.82;;;22.40;81.20;;;;;;5078154;28;20024;-84
2023/08/08 02:36:33;;;;;;;5.55;4.63;;;22.20;81.60;;;;;;5058826;28;20403;-83
2023/08/08 02:38:59;;;;;;;8.60;5.50;;;22.20;81.50;;;;;;5074240;28;20028;-85
2023/08/08 02:41:24;;;;;;;10.75;5.63;;;22.10;82.00;;;;;;5073687;28;20025;-84
2023/08/08 02:43:50;;;;;;;5.60;5.07;;;22.10;82.20;;;;;;5073600;28;20060;-84
2023/08/08 02:46:16;;;;;;;6.97;5.07;;;22.20;82.10;;;;;;5055676;28;20021;-84
2023/08/08 02:48:42;;;;;;;8.75;5.20;;;22.20;81.20;;;;;;5041604;28;20033;-84
2023/08/08 02:51:08;;;;;;;9.43;5.45;;;22.30;80.70;;;;;;5080681;28;20373;-82
2023/08/08 02:53:34;;;;;;;6.63;5.70;;;22.30;80.90;;;;;;5080054;28;20021;-82
2023/08/08 02:55:59;;;;;;;5.35;4.85;;;22.40;81.50;;;;;;5069631;28;20028;-82
2023/08/08 02:58:25;;;;;;;6.78;5.30;;;22.50;79.70;;;;;;5074025;28;20413;-83
2023/08/08 03:00:52;;;;;;;9.30;4.72;;;22.60;79.90;;;;;;5078419;28;20025;-82
2023/08/08 03:03:18;;;;;;;14.68;5.97;;;22.70;79.20;;;;;;5105991;28;20024;-82
2023/08/08 03:05:45;;;;;;;10.90;5.25;;;22.70;79.50;;;;;;5092341;28;20043;-82
2023/08/08 03:08:11;;;;;;;12.02;5.95;;;22.80;78.40;;;;;;5083332;28;20016;-81
2023/08/08 03:10:37;;;;;;;8.07;5.30;;;22.90;78.60;;;;;;5060323;28;20047;-82
2023/08/08 03:13:03;;;;;;;7.07;5.68;;;23.00;78.40;;;;;;5040365;28;20492;-81
2023/08/08 03:15:29;;;;;;;11.57;5.47;;;23.10;78.50;;;;;;5061537;28;20104;-82
2023/08/08 03:17:55;;;;;;;10.20;5.28;;;23.20;78.30;;;;;;5075271;28;20385;-84
2023/08/08 03:20:21;;;;;;;9.80;5.63;;;23.30;78.20;;;;;;5055433;28;20019;-83
2023/08/08 03:22:47;;;;;;;8.27;5.13;;;23.30;77.50;;;;;;5073484;28;20024;-84
2023/08/08 03:25:13;;;;;;;11.73;5.75;;;23.40;77.30;;;;;;5069663;28;20028;-83
2023/08/08 03:27:39;;;;;;;9.95;5.07;;;23.50;76.50;;;;;;5045622;28;20017;-83
2023/08/08 03:30:05;;;;;;;8.25;6.32;;;23.50;76.20;;;;;;5074239;28;20024;-83
2023/08/08 03:32:31;;;;;;;11.35;5.65;;;23.50;75.80;;;;;;5056005;28;20508;-83
2023/08/08 03:34:57;;;;;;;15.25;5.60;;;23.50;76.50;;;;;;5062022;28;20037;-82
2023/08/08 03:37:23;;;;;;;10.57;6.07;;;23.50;76.30;;;;;;5083472;28;20017;-83
2023/08/08 03:39:49;;;;;;;9.15;5.20;;;23.50;75.80;;;;;;5083801;28;20080;-82
2023/08/08 03:42:15;;;;;;;6.70;5.63;;;23.50;75.60;;;;;;5063962;28;20024;-83
2023/08/08 03:44:41;;;;;;;9.55;5.88;;;23.60;76.00;;;;;;5070564;28;20033;-86
2023/08/08 03:47:07;;;;;;;10.65;6.03;;;23.50;75.70;;;;;;5062337;28;20024;-83
2023/08/08 03:49:33;;;;;;;7.57;5.40;;;23.60;75.20;;;;;;5057038;28;20028;-83
2023/08/08 03:51:59;;;;;;;15.20;4.82;;;23.60;74.60;;;;;;5062809;28;20029;-84
2023/08/08 03:54:25;;;;;;;7.28;5.18;;;23.60;74.70;;;;;;5058168;28;20028;-83
2023/08/08 03:56:50;;;;;;;6.00;4.93;;;23.60;74.70;;;;;;5066703;28;20023;-83
2023/08/08 03:59:16;;;;;;;8.77;5.03;;;23.60;74.60;;;;;;5076355;28;20510;-85
2023/08/08 04:01:42;;;;;;;7.55;5.57;;;23.60;74.80;;;;;;5060479;28;20092;-85
2023/08/08 04:04:08;;;;;;;11.73;4.97;;;23.60;75.20;;;;;;5066662;28;20032;-83
2023/08/08 04:06:34;;;;;;;5.93;4.97;;;23.60;74.90;;;;;;5084169;28;20024;-85
2023/08/08 04:09:00;;;;;;;7.85;5.22;;;23.60;74.70;;;;;;5066000;28;20074;-83
2023/08/08 04:11:27;;;;;;;11.70;6.07;;;23.60;74.90;;;;;;5061017;28;20127;-85
2023/08/08 04:13:52;;;;;;;6.20;4.85;;;23.50;74.80;;;;;;5073044;28;20040;-84
2023/08/08 04:16:18;;;;;;;9.20;5.15;;;23.50;75.00;;;;;;5073273;28;20428;-83
2023/08/08 04:18:45;;;;;;;5.80;4.97;;;23.40;76.00;;;;;;5063621;28;20117;-83
2023/08/08 04:21:11;;;;;;;9.25;5.55;;;23.30;77.30;;;;;;5051004;28;20458;-85
2023/08/08 04:23:37;;;;;;;10.07;6.07;;;23.10;78.20;;;;;;5074617;28;20170;-84
2023/08/08 04:26:03;;;;;;;5.95;5.18;;;23.00;78.40;;;;;;5084060;28;20025;-84
2023/08/08 04:28:29;;;;;;;7.03;6.15;;;23.00;78.60;;;;;;5063423;28;20048;-84
2023/08/08 04:30:55;;;;;;;8.50;5.72;;;22.90;78.80;;;;;;5084192;28;20021;-82
2023/08/08 04:33:21;;;;;;;9.85;5.90;;;22.90;79.10;;;;;;5061613;28;20115;-83
2023/08/08 04:35:47;;;;;;;9.63;5.97;;;23.00;79.50;;;;;;5081730;28;20473;-82
2023/08/08 04:38:17;;;;;;;10.17;5.67;;;22.90;79.80;;;;;;5071832;28;20100;-83
2023/08/08 04:40:43;;;;;;;12.25;6.30;;;23.00;79.80;;;;;;5073884;28;20095;-81
2023/08/08 04:43:09;;;;;;;7.68;5.55;;;22.90;80.50;;;;;;5073507;28;20468;-85
2023/08/08 04:45:35;;;;;;;6.20;5.65;;;22.90;79.90;;;;;;5055218;28;20056;-84
2023/08/08 04:48:01;;;;;;;11.10;6.05;;;22.90;80.60;;;;;;5081595;28;20091;-83
2023/08/08 04:50:28;;;;;;;10.27;5.88;;;22.80;81.10;;;;;;5073936;28;20032;-83
2023/08/08 04:52:53;;;;;;;11.38;6.40;;;22.80;81.10;;;;;;5076175;28;20356;-82
2023/08/08 04:55:19;;;;;;;12.82;5.70;;;22.80;81.10;;;;;;5065504;28;20033;-82
2023/08/08 04:57:45;;;;;;;7.57;5.28;;;22.90;80.60;;;;;;5075384;28;20086;-82
2023/08/08 05:00:11;;;;;;;9.85;5.60;;;22.90;80.40;;;;;;5057224;28;20063;-82
2023/08/08 05:02:39;;;;;;;6.43;5.37;;;22.90;81.00;;;;;;5089065;28;20028;-84
2023/08/08 05:05:05;;;;;;;8.88;6.90;;;22.90;80.70;;;;;;5076593;28;20504;-82
2023/08/08 05:07:31;;;;;;;9.40;6.40;;;22.80;81.90;;;;;;5087327;28;20470;-83
2023/08/08 05:09:57;;;;;;;8.68;6.03;;;22.90;81.50;;;;;;5075510;28;20103;-83
2023/08/08 05:12:23;;;;;;;10.35;5.75;;;22.90;82.40;;;;;;5057123;28;20048;-84
2023/08/08 05:14:49;;;;;;;15.00;6.47;;;23.00;81.60;;;;;;5075168;28;20032;-83
2023/08/08 05:17:14;;;;;;;14.98;6.32;;;23.20;81.30;;;;;;5076705;28;20048;-84
2023/08/08 05:19:40;;;;;;;10.55;5.88;;;23.50;80.40;;;;;;5076093;28;20024;-85
2023/08/08 05:22:06;;;;;;;10.60;6.80;;;23.60;79.90;;;;;;5064517;28;20048;-84
2023/08/08 05:24:32;;;;;;;13.63;6.50;;;23.70;78.90;;;;;;5075633;28;20468;-84
2023/08/08 05:26:58;;;;;;;11.65;6.57;;;23.70;78.90;;;;;;5076365;28;20028;-84
2023/08/08 05:29:24;;;;;;;10.27;6.60;;;23.80;79.10;;;;;;5073974;28;20367;-82
2023/08/08 05:31:49;;;;;;;11.23;5.70;;;23.90;78.60;;;;;;5061273;28;20067;-83
2023/08/08 05:34:15;;;;;;;13.93;7.22;;;23.90;77.90;;;;;;5088743;28;20050;-82
2023/08/08 05:36:41;;;;;;;12.38;6.65;;;23.90;77.90;;;;;;5093493;28;20087;-83
2023/08/08 05:39:07;;;;;;;21.70;7.70;;;23.90;78.20;;;;;;5099610;28;20108;-82
2023/08/08 05:41:33;;;;;;;21.27;9.65;;;24.00;78.70;;;;;;5056132;28;20470;-83
2023/08/08 05:43:59;;;;;;;13.38;7.20;;;24.10;78.00;;;;;;5038859;28;20532;-83
2023/08/08 05:46:25;;;;;;;11.55;6.50;;;24.50;77.60;;;;;;5044828;28;20021;-83
2023/08/08 05:48:51;;;;;;;12.85;6.13;;;25.50;74.80;;;;;;5044202;28;20087;-84
2023/08/08 05:51:17;;;;;;;11.02;6.57;;;26.90;71.60;;;;;;5043841;28;20466;-83
2023/08/08 05:53:43;;;;;;;12.30;6.40;;;;;;;;;;5039623;28;20036;-84
2023/08/08 05:56:09;;;;;;;16.70;5.93;;;28.40;67.50;;;;;;5078791;28;20177;-83
2023/08/08 05:58:37;;;;;;;10.68;6.47;;;30.30;62.40;;;;;;5054651;28;20120;-87
2023/08/08 06:01:09;;;;;;;11.65;6.32;;;31.30;59.40;;;;;;5064990;28;20017;-84
2023/08/08 06:03:35;;;;;;;12.27;7.28;;;31.90;57.20;;;;;;5059449;28;20028;-86
2023/08/08 06:06:01;;;;;;;8.65;6.10;;;32.20;56.60;;;;;;5055891;28;20513;-85
2023/08/08 06:08:27;;;;;;;12.88;6.05;;;32.00;55.80;;;;;;5078092;28;20017;-87
2023/08/08 06:10:53;;;;;;;10.48;5.53;;;31.40;56.40;;;;;;5066063;28;20122;-86
2023/08/08 06:13:19;;;;;;;11.90;5.82;;;30.50;57.50;;;;;;5082826;28;20040;-85
2023/08/08 06:15:45;;;;;;;12.80;7.43;;;29.50;59.70;;;;;;5065398;28;20021;-85
2023/08/08 06:18:11;;;;;;;18.90;8.63;;;28.70;61.10;;;;;;5063394;28;20025;-86
2023/08/08 06:20:37;;;;;;;11.17;7.50;;;28.00;63.40;;;;;;5085926;28;20028;-86
2023/08/08 06:23:04;;;;;;;7.77;6.43;;;27.40;64.30;;;;;;5037691;28;20037;-86
2023/08/08 06:25:29;;;;;;;16.52;6.95;;;26.90;65.40;;;;;;5030717;28;20301;-86
2023/08/08 06:27:55;;;;;;;14.63;7.70;;;26.40;67.20;;;;;;5055734;28;20030;-85
2023/08/08 06:30:22;;;;;;;12.18;7.30;;;26.10;68.30;;;;;;5065857;28;20020;-87
2023/08/08 06:32:48;;;;;;;13.00;6.43;;;26.10;69.40;;;;;;5064530;28;20045;-86
2023/08/08 06:35:16;;;;;;;16.23;8.18;;;26.20;70.10;;;;;;5094286;28;20012;-86
2023/08/08 06:37:43;;;;;;;20.67;9.88;;;26.30;69.50;;;;;;5092880;28;20031;-85
2023/08/08 06:40:10;;;;;;;16.83;7.13;;;26.30;69.50;;;;;;5074568;28;20025;-86
2023/08/08 06:42:36;;;;;;;8.73;7.18;;;26.30;70.20;;;;;;5061766;28;20029;-86
2023/08/08 06:45:02;;;;;;;10.52;7.32;;;26.30;69.50;;;;;;5075263;28;20465;-88
2023/08/08 06:47:28;;;;;;;13.90;7.63;;;26.50;69.10;;;;;;5060893;28;20390;-89
2023/08/08 06:49:54;;;;;;;16.50;7.75;;;26.60;69.10;;;;;;5079061;28;20021;-87
2023/08/08 06:52:22;;;;;;;17.83;7.88;;;26.70;68.50;;;;;;5058234;28;20021;-86
2023/08/08 06:54:48;;;;;;;14.40;6.97;;;26.90;68.50;;;;;;5052213;28;20112;-86
2023/08/08 06:57:14;;;;;;;14.40;6.63;;;27.40;67.30;;;;;;5061266;28;20466;-85
2023/08/08 06:59:41;;;;;;;25.00;9.00;;;28.00;66.30;;;;;;5064662;28;20028;-85
2023/08/08 07:02:07;;;;;;;;;;;29.20;64.40;;;;;;5049923;28;20016;-87
2023/08/08 07:04:36;;;;;;;19.90;6.90;;;29.90;63.50;;;;;;5055114;28;20418;-87
2023/08/08 07:07:02;;;;;;;20.55;7.68;;;30.80;60.30;;;;;;5084972;28;20024;-86
2023/08/08 07:09:30;;;;;;;12.13;6.82;;;31.20;58.60;;;;;;5084630;28;20022;-86
2023/08/08 07:11:56;;;;;;;10.50;6.03;;;31.00;58.10;;;;;;5055201;28;20051;-85
2023/08/08 07:14:22;;;;;;;21.00;8.50;;;30.80;58.00;;;;;;5072297;28;20052;-87
2023/08/08 07:16:48;;;;;;;12.88;7.10;;;30.70;58.30;;;;;;5057495;28;20273;-86
2023/08/08 07:19:15;;;;;;;22.95;7.57;;;30.60;58.70;;;;;;5051081;28;20036;-87
2023/08/08 07:21:41;;;;;;;10.25;7.15;;;30.40;59.10;;;;;;5074806;28;20065;-86
2023/08/08 07:24:07;;;;;;;15.05;7.68;;;30.00;59.60;;;;;;5060238;28;20040;-87
2023/08/08 07:26:33;;;;;;;17.27;7.13;;;29.80;60.40;;;;;;5059014;28;20029;-86
2023/08/08 07:29:05;;;;;;;16.45;10.57;;;29.80;60.60;;;;;;5064840;28;20293;-87
2023/08/08 07:31:32;;;;;;;12.25;6.53;;;29.70;60.50;;;;;;5061184;28;20025;-85
2023/08/08 07:33:59;;;;;;;13.02;7.32;;;29.40;61.50;;;;;;5070060;28;20040;-85
2023/08/08 07:36:25;;;;;;;;;;;29.00;61.60;;;;;;5049150;28;20028;-85
2023/08/08 07:38:51;;;;;;;12.37;8.03;;;28.70;62.00;;;;;;5055233;28;19905;-84
2023/08/08 07:41:19;;;;;;;15.60;8.20;;;28.90;62.50;;;;;;5047718;28;20501;-86
2023/08/08 07:43:45;;;;;;;10.77;7.28;;;29.50;61.30;;;;;;5073189;28;20032;-84
2023/08/08 07:46:11;;;;;;;8.55;7.68;;;30.40;60.40;;;;;;5075961;28;20033;-85
2023/08/08 07:48:37;;;;;;;11.83;7.90;;;31.50;58.10;;;;;;5067704;28;20553;-86
2023/08/08 07:51:03;;;;;;;13.27;8.07;;;31.70;56.60;;;;;;5054448;28;20095;-86
2023/08/08 07:53:29;;;;;;;14.70;8.85;;;31.20;57.10;;;;;;5067135;28;20127;-86
2023/08/08 07:55:54;;;;;;;14.07;8.57;;;30.70;57.80;;;;;;5064074;28;20016;-85
2023/08/08 07:58:23;;;;;;;15.20;7.90;;;30.30;58.70;;;;;;5076928;28;20016;-86
2023/08/08 08:00:49;;;;;;;10.95;9.18;;;29.50;59.80;;;;;;5060185;28;20050;-85
2023/08/08 08:03:15;;;;;;;14.52;10.90;;;28.90;61.30;;;;;;5082447;28;20040;-85
2023/08/08 08:05:41;;;;;;;12.75;8.57;;;28.40;62.50;;;;;;5067322;28;20040;-86
2023/08/08 08:08:08;;;;;;;10.10;8.60;;;28.20;63.60;;;;;;5058668;28;20032;-86
2023/08/08 08:10:36;;;;;;;10.98;8.20;;;28.00;63.80;;;;;;5075852;28;20074;-83
2023/08/08 08:13:02;;;;;;;14.80;8.07;;;28.10;64.50;;;;;;5045527;28;20097;-87
2023/08/08 08:15:28;;;;;;;13.25;8.73;;;28.20;64.30;;;;;;5078440;28;20047;-87
2023/08/08 08:17:54;;;;;;;15.50;8.80;;;28.20;63.80;;;;;;5045297;28;20390;-86
2023/08/08 08:20:20;;;;;;;18.98;9.85;;;28.10;64.30;;;;;;5068686;28;20100;-87
2023/08/08 08:22:47;;;;;;;25.17;10.10;;;27.90;64.90;;;;;;5066316;28;20064;-85
2023/08/08 08:25:14;;;;;;;12.20;9.07;;;27.70;65.70;;;;;;5060220;28;20329;-88
2023/08/08 08:27:40;;;;;;;17.40;9.93;;;27.60;66.00;;;;;;5059088;28;20029;-87
2023/08/08 08:30:09;;;;;;;11.90;9.85;;;27.60;66.10;;;;;;5077626;28;20093;-85
2023/08/08 08:32:37;;;;;;;15.70;8.63;;;27.30;66.50;;;;;;5063802;28;20402;-86
2023/08/08 08:35:04;;;;;;;11.27;9.30;;;27.10;67.30;;;;;;5045470;28;20029;-86
2023/08/08 08:37:30;;;;;;;17.53;10.23;;;27.00;67.70;;;;;;5070510;28;20055;-87
2023/08/08 08:39:56;;;;;;;14.15;10.68;;;27.00;67.70;;;;;;5068417;28;20658;-88
2023/08/08 08:42:22;;;;;;;15.35;9.57;;;27.20;67.70;;;;;;5060859;28;20142;-85
2023/08/08 08:44:51;;;;;;;18.57;11.50;;;27.30;67.30;;;;;;5079737;28;20505;-87
2023/08/08 08:47:19;;;;;;;23.80;9.35;;;27.40;67.50;;;;;;5058826;28;20115;-85
2023/08/08 08:49:46;;;;;;;15.00;9.65;;;27.70;67.10;;;;;;5064240;28;20051;-85
2023/08/08 08:52:12;;;;;;;21.43;9.20;;;27.80;66.30;;;;;;5081355;28;20078;-85
2023/08/08 08:54:38;;;;;;;19.45;9.63;;;27.80;67.10;;;;;;5076690;28;20292;-85
2023/08/08 08:57:05;;;;;;;25.90;11.00;;;27.90;66.90;;;;;;5063824;28;20028;-86
2023/08/08 08:59:31;;;;;;;17.20;9.55;;;28.20;66.50;;;;;;5063944;28;20029;-85
2023/08/08 09:02:00;;;;;;;23.25;9.27;;;28.30;65.80;;;;;;5063839;28;20025;-86
2023/08/08 09:04:29;;;;;;;29.77;10.38;;;29.40;65.40;;;;;;5054351;28;20051;-87
2023/08/08 09:06:56;;;;;;;15.43;12.05;;;31.50;60.60;;;;;;5065992;28;20024;-87
2023/08/08 09:09:22;;;;;;;22.67;9.63;;;33.00;57.00;;;;;;5079507;28;20036;-86
2023/08/08 09:11:55;;;;;;;17.85;8.73;;;33.50;55.10;;;;;;5078443;28;20050;-86
2023/08/08 09:14:23;;;;;;;19.75;9.30;;;34.30;53.90;;;;;;5065898;28;20036;-85
2023/08/08 09:16:52;;;;;;;15.07;8.55;;;34.50;53.00;;;;;;5058081;28;20501;-87
2023/08/08 09:19:19;;;;;;;17.95;9.00;;;34.00;53.60;;;;;;5080062;28;20047;-86
2023/08/08 09:21:45;;;;;;;13.43;8.43;;;33.60;53.80;;;;;;5060796;28;20116;-87
2023/08/08 09:24:11;;;;;;;17.17;9.32;;;33.60;54.50;;;;;;5074182;28;20033;-85
2023/08/08 09:26:38;;;;;;;19.48;9.65;;;34.50;53.20;;;;;;5068543;28;20021;-86
2023/08/08 09:29:05;;;;;;;12.65;9.38;;;35.00;51.60;;;;;;5078630;28;20033;-86
2023/08/08 09:31:34;;;;;;;14.90;8.40;;;35.50;50.90;;;;;;5071645;28;20128;-87
2023/08/08 09:34:01;;;;;;;14.20;10.07;;;35.80;49.90;;;;;;5052077;28;20569;-86
2023/08/08 09:36:28;;;;;;;13.57;9.18;;;35.70;49.50;;;;;;5075404;28;20034;-87
2023/08/08 09:38:54;;;;;;;;;;;35.20;50.40;;;;;;5082615;28;20035;-87
2023/08/08 09:41:21;;;;;;;21.88;10.20;;;34.90;51.60;;;;;;5092281;28;20341;-85
2023/08/08 09:43:52;;;;;;;12.85;8.95;;;34.50;51.20;;;;;;5081600;28;20020;-88
2023/08/08 09:46:22;;;;;;;17.15;11.55;;;33.90;52.10;;;;;;5079782;28;20024;-85
2023/08/08 09:48:49;;;;;;;22.95;10.98;;;;;;;;;;5079333;28;20052;-87
2023/08/08 09:51:16;;;;;;;16.60;11.02;;;31.80;55.00;;;;;;5079786;28;20054;-86
2023/08/08 09:53:43;;;;;;;19.67;9.82;;;31.10;57.20;;;;;;5065847;28;20028;-86
2023/08/08 09:56:10;;;;;;;24.08;11.20;;;30.80;58.40;;;;;;5064597;28;20059;-85
2023/08/08 09:58:36;;;;;;;31.80;11.13;;;30.90;58.90;;;;;;5085417;28;20023;-86
2023/08/08 10:01:04;;;;;;;20.80;11.07;;;30.90;59.20;;;;;;5067932;28;20157;-84
2023/08/08 10:03:32;;;;;;;15.13;10.10;;;30.90;58.00;;;;;;5072052;28;20031;-86
2023/08/08 10:05:59;;;;;;;14.02;10.52;;;30.90;57.60;;;;;;5088552;28;20052;-89
2023/08/08 10:08:25;;;;;;;21.58;10.43;;;30.90;58.10;;;;;;5061567;28;20044;-88
2023/08/08 10:10:51;;;;;;;18.47;10.80;;;31.20;57.40;;;;;;5060991;28;20371;-86
2023/08/08 10:13:25;;;;;;;16.90;10.20;;;31.60;56.70;;;;;;5061609;28;20028;-85
2023/08/08 10:15:53;;;;;;;16.45;9.90;;;31.80;56.60;;;;;;5083025;28;20029;-85
2023/08/08 10:18:21;;;;;;;15.75;10.52;;;31.80;55.70;;;;;;5064448;28;20603;-85
2023/08/08 10:20:49;;;;;;;16.50;9.85;;;31.70;56.10;;;;;;5062287;28;20035;-86
2023/08/08 10:23:16;;;;;;;15.68;10.48;;;31.80;56.80;;;;;;5059063;28;20017;-85
2023/08/08 10:25:47;;;;;;;17.70;10.07;;;31.90;56.10;;;;;;5056466;28;20029;-86
2023/08/08 10:28:16;;;;;;;11.38;9.93;;;31.70;56.30;;;;;;5046287;28;20021;-86
2023/08/08 10:30:49;;;;;;;19.33;10.75;;;31.70;56.50;;;;;;5061158;28;20055;-88
2023/08/08 10:33:23;;;;;;;21.10;11.98;;;31.70;56.30;;;;;;5092974;28;20042;-87
2023/08/08 10:36:06;;;;;;;15.48;10.77;;;31.50;56.70;;;;;;5069424;28;20393;-87
2023/08/08 10:38:50;;;;;;;15.85;10.85;;;30.80;57.00;;;;;;5076688;28;20024;-85
2023/08/08 10:41:18;;;;;;;15.30;11.25;;;30.10;58.80;;;;;;5083338;28;20027;-87
2023/08/08 10:43:58;;;;;;;15.93;10.10;;;29.70;59.80;;;;;;5076323;28;20521;-88
2023/08/08 10:46:27;;;;;;;15.88;10.73;;;29.60;60.20;;;;;;5058618;28;20035;-87
2023/08/08 10:49:02;;;;;;;16.95;9.73;;;29.50;60.60;;;;;;5044641;28;20401;-87
2023/08/08 10:51:54;;;;;;;15.32;10.93;;;29.50;60.70;;;;;;5076498;28;20035;-85
2023/08/08 10:54:29;;;;;;;13.63;10.52;;;29.40;60.80;;;;;;5060320;28;20150;-86
2023/08/08 10:56:57;;;;;;;14.52;10.05;;;29.20;61.10;;;;;;5081135;28;20082;-85
2023/08/08 10:59:37;;;;;;;14.55;10.57;;;29.00;61.50;;;;;;5057973;28;20043;-85
2023/08/08 11:02:03;;;;;;;14.80;11.40;;;28.70;62.40;;;;;;5083369;28;20025;-87
2023/08/08 11:04:30;;;;;;;16.77;10.98;;;28.50;63.10;;;;;;5082368;28;20532;-87
2023/08/08 11:06:56;;;;;;;17.08;10.15;;;28.20;63.90;;;;;;5057539;28;20029;-85
2023/08/08 11:09:23;;;;;;;16.50;10.70;;;28.00;65.10;;;;;;5075267;28;20516;-85
2023/08/08 11:11:48;;;;;;;25.60;17.20;;;28.00;65.70;;;;;;5062133;28;20653;-86
2023/08/08 11:14:16;;;;;;;15.40;10.40;;;28.10;65.40;;;;;;5074627;28;20021;-86
2023/08/08 11:16:44;;;;;;;23.20;16.77;;;28.10;65.60;;;;;;5078028;28;20385;-87
2023/08/08 11:19:11;;;;;;;21.23;12.55;;;28.20;65.30;;;;;;5078344;28;20387;-86
2023/08/08 11:21:41;;;;;;;18.60;12.48;;;28.30;64.90;;;;;;5081671;28;20059;-87
2023/08/08 11:24:08;;;;;;;24.15;17.23;;;28.30;64.40;;;;;;5067185;28;20075;-87
2023/08/08 11:26:35;;;;;;;;;;;28.30;64.90;;;;;;5080544;28;20493;-85
2023/08/08 11:29:02;;;;;;;19.02;15.75;;;28.30;64.40;;;;;;5053537;28;20067;-87
2023/08/08 11:31:29;;;;;;;15.57;12.10;;;28.10;65.20;;;;;;5068112;28;20367;-88
2023/08/08 11:33:55;;;;;;;15.90;12.13;;;28.00;65.90;;;;;;5079478;28;20503;-84
2023/08/08 11:36:22;;;;;;;23.95;11.50;;;27.90;65.90;;;;;;5082214;28;20032;-86
2023/08/08 11:38:49;;;;;;;14.93;10.65;;;27.70;66.70;;;;;;5073856;28;20044;-86
2023/08/08 11:41:17;;;;;;;19.13;10.60;;;27.60;67.20;;;;;;5057192;28;20028;-88
2023/08/08 11:43:44;;;;;;;17.17;10.68;;;27.40;67.20;;;;;;5044437;28;20025;-85
2023/08/08 11:46:14;;;;;;;17.73;10.75;;;27.30;67.60;;;;;;5058459;28;20164;-87
2023/08/08 11:48:41;;;;;;;17.65;10.80;;;27.30;68.20;;;;;;5074501;28;20381;-85
2023/08/08 11:51:08;;;;;;;20.00;11.17;;;27.30;68.20;;;;;;5080460;28;20358;-86
2023/08/08 11:53:35;;;;;;;17.55;11.00;;;27.30;68.00;;;;;;5081019;28;20401;-86
2023/08/08 11:56:03;;;;;;;20.38;11.73;;;27.30;68.50;;;;;;5059540;28;20025;-86
2023/08/08 11:58:32;;;;;;;22.17;12.40;;;27.30;68.30;;;;;;5052295;28;20028;-87
2023/08/08 12:00:58;;;;;;;24.02;13.43;;;27.30;68.70;;;;;;5081112;28;20042;-87
2023/08/08 12:03:26;;;;;;;26.38;11.77;;;27.50;69.20;;;;;;5062357;28;20017;-87
2023/08/08 12:05:52;;;;;;;20.40;14.18;;;27.70;68.80;;;;;;5087083;28;20128;-87
2023/08/08 12:08:19;;;;;;;16.93;12.47;;;27.90;67.90;;;;;;5082953;28;20044;-86
2023/08/08 12:10:54;;;;;;;16.08;11.88;;;28.20;67.20;;;;;;5060783;28;20067;-85
2023/08/08 12:13:26;;;;;;;15.68;13.25;;;28.40;66.70;;;;;;5060121;28;20516;-87
2023/08/08 12:15:53;;;;;;;15.85;11.50;;;28.40;66.10;;;;;;5049923;28;20068;-86
2023/08/08 12:18:19;;;;;;;;;;;28.40;66.50;;;;;;5057777;28;20439;-86
2023/08/08 12:20:45;;;;;;;18.97;13.13;;;28.60;66.40;;;;;;5059920;28;19904;-87
2023/08/08 12:23:12;;;;;;;25.17;14.00;;;28.80;65.80;;;;;;5092717;28;20080;-87
2023/08/08 12:25:39;;;;;;;19.17;12.73;;;29.00;64.90;;;;;;5079352;28;20067;-85
2023/08/08 12:28:05;;;;;;;20.88;15.32;;;29.10;64.70;;;;;;5087590;28;20114;-86
2023/08/08 12:30:31;;;;;;;23.70;13.65;;;29.30;65.20;;;;;;5067688;28;20028;-87
2023/08/08 12:32:57;;;;;;;27.80;12.55;;;29.50;64.40;;;;;;5070564;28;20025;-86
2023/08/08 12:35:26;;;;;;;25.48;12.50;;;29.60;64.10;;;;;;5092685;28;20067;-86
2023/08/08 12:37:52;;;;;;;19.65;13.95;;;29.60;64.10;;;;;;5088092;28;20016;-85
2023/08/08 12:40:18;;;;;;;24.13;17.83;;;29.60;63.70;;;;;;5094396;28;20083;-87